Terminal Aerodrome Forecast
Issued by NWS

Home | Current Version | Previous Version | Text Only | Print | Product List | Glossary On
Versions: 1 2 3 4 5 6 7 8 9 10 11 12
000
FTUS41 KBTV 221133
TAFMPV
TAF
KMPV 221133Z 2212/2312 VRB03KT P6SM BKN025
     FM221400 00000KT P6SM BKN035
     FM222300 VRB03KT P6SM SCT035
     FM230000 VRB03KT 2SM BR OVC015
      TEMPO 2302/2306 1/2SM FG OVC002
     FM231000 18008KT 4SM BR OVC008=

USA.gov is the U.S. government's official web portal to all federal, state and local government web resources and services.